sensor_id;sensor_type;location;lat;lon;timestamp;P1;durP1;ratioP1;P2;durP2;ratioP2
6679;SDS011;3376;42.664;23.346;2023-12-22T00:01:35;26.90;;;22.47;;
6679;SDS011;3376;42.664;23.346;2023-12-22T00:04:01;32.37;;;23.70;;
6679;SDS011;3376;42.664;23.346;2023-12-22T00:06:31;32.27;;;23.47;;
6679;SDS011;3376;42.664;23.346;2023-12-22T00:08:58;30.20;;;23.17;;
6679;SDS011;3376;42.664;23.346;2023-12-22T00:11:25;32.10;;;24.10;;
6679;SDS011;3376;42.664;23.346;2023-12-22T00:13:53;35.53;;;25.13;;
6679;SDS011;3376;42.664;23.346;2023-12-22T00:16:20;31.27;;;23.37;;
6679;SDS011;3376;42.664;23.346;2023-12-22T00:18:47;33.33;;;24.60;;
6679;SDS011;3376;42.664;23.346;2023-12-22T00:21:14;37.23;;;24.60;;
6679;SDS011;3376;42.664;23.346;2023-12-22T00:23:41;29.80;;;22.10;;
6679;SDS011;3376;42.664;23.346;2023-12-22T00:26:08;29.47;;;21.07;;
6679;SDS011;3376;42.664;23.346;2023-12-22T00:28:35;26.63;;;21.50;;
6679;SDS011;3376;42.664;23.346;2023-12-22T00:31:03;23.30;;;19.07;;
6679;SDS011;3376;42.664;23.346;2023-12-22T00:33:30;23.47;;;18.63;;
6679;SDS011;3376;42.664;23.346;2023-12-22T00:35:57;17.80;;;15.87;;
6679;SDS011;3376;42.664;23.346;2023-12-22T00:38:24;21.70;;;17.40;;
6679;SDS011;3376;42.664;23.346;2023-12-22T00:40:52;20.27;;;16.03;;
6679;SDS011;3376;42.664;23.346;2023-12-22T00:43:18;19.57;;;17.23;;
6679;SDS011;3376;42.664;23.346;2023-12-22T00:45:45;25.53;;;16.87;;
6679;SDS011;3376;42.664;23.346;2023-12-22T00:48:14;23.00;;;17.37;;
6679;SDS011;3376;42.664;23.346;2023-12-22T00:50:41;20.87;;;16.93;;
6679;SDS011;3376;42.664;23.346;2023-12-22T00:53:08;26.07;;;18.73;;
6679;SDS011;3376;42.664;23.346;2023-12-22T00:55:35;19.63;;;16.53;;
6679;SDS011;3376;42.664;23.346;2023-12-22T00:58:03;20.57;;;15.70;;
6679;SDS011;3376;42.664;23.346;2023-12-22T01:00:30;16.90;;;15.13;;
6679;SDS011;3376;42.664;23.346;2023-12-22T01:02:56;20.53;;;14.60;;
6679;SDS011;3376;42.664;23.346;2023-12-22T01:05:25;18.40;;;15.33;;
6679;SDS011;3376;42.664;23.346;2023-12-22T01:07:52;18.53;;;14.70;;
6679;SDS011;3376;42.664;23.346;2023-12-22T01:10:19;22.83;;;15.60;;
6679;SDS011;3376;42.664;23.346;2023-12-22T01:12:45;21.03;;;15.47;;
6679;SDS011;3376;42.664;23.346;2023-12-22T01:15:12;17.90;;;16.00;;
6679;SDS011;3376;42.664;23.346;2023-12-22T01:17:40;19.83;;;17.07;;
6679;SDS011;3376;42.664;23.346;2023-12-22T01:20:07;18.93;;;16.23;;
6679;SDS011;3376;42.664;23.346;2023-12-22T01:22:37;19.37;;;17.10;;
6679;SDS011;3376;42.664;23.346;2023-12-22T01:25:04;22.20;;;18.20;;
6679;SDS011;3376;42.664;23.346;2023-12-22T01:27:31;20.33;;;17.87;;
6679;SDS011;3376;42.664;23.346;2023-12-22T01:29:58;25.13;;;16.63;;
6679;SDS011;3376;42.664;23.346;2023-12-22T01:32:25;20.07;;;15.30;;
6679;SDS011;3376;42.664;23.346;2023-12-22T01:34:58;19.13;;;17.23;;
6679;SDS011;3376;42.664;23.346;2023-12-22T01:37:28;19.77;;;16.90;;
6679;SDS011;3376;42.664;23.346;2023-12-22T01:39:57;24.80;;;16.37;;
6679;SDS011;3376;42.664;23.346;2023-12-22T01:42:23;20.77;;;14.70;;
6679;SDS011;3376;42.664;23.346;2023-12-22T01:44:50;20.63;;;14.23;;
6679;SDS011;3376;42.664;23.346;2023-12-22T01:47:17;17.73;;;14.27;;
6679;SDS011;3376;42.664;23.346;2023-12-22T01:49:44;16.70;;;14.60;;
6679;SDS011;3376;42.664;23.346;2023-12-22T01:52:11;22.90;;;17.30;;
6679;SDS011;3376;42.664;23.346;2023-12-22T01:54:39;17.13;;;14.07;;
6679;SDS011;3376;42.664;23.346;2023-12-22T01:57:06;18.77;;;15.40;;
6679;SDS011;3376;42.664;23.346;2023-12-22T01:59:34;17.57;;;15.63;;
6679;SDS011;3376;42.664;23.346;2023-12-22T02:02:02;17.43;;;15.83;;
6679;SDS011;3376;42.664;23.346;2023-12-22T02:04:30;19.53;;;13.80;;
6679;SDS011;3376;42.664;23.346;2023-12-22T02:06:57;19.07;;;16.33;;
6679;SDS011;3376;42.664;23.346;2023-12-22T02:09:27;20.07;;;15.90;;
6679;SDS011;3376;42.664;23.346;2023-12-22T02:11:54;17.47;;;14.87;;
6679;SDS011;3376;42.664;23.346;2023-12-22T02:14:22;17.80;;;13.40;;
6679;SDS011;3376;42.664;23.346;2023-12-22T02:16:50;19.87;;;15.07;;
6679;SDS011;3376;42.664;23.346;2023-12-22T02:19:22;18.10;;;16.23;;
6679;SDS011;3376;42.664;23.346;2023-12-22T02:21:59;20.33;;;17.07;;
6679;SDS011;3376;42.664;23.346;2023-12-22T02:24:28;20.20;;;15.40;;
6679;SDS011;3376;42.664;23.346;2023-12-22T02:26:55;18.63;;;15.20;;
6679;SDS011;3376;42.664;23.346;2023-12-22T02:29:30;17.93;;;15.77;;
6679;SDS011;3376;42.664;23.346;2023-12-22T02:31:59;17.33;;;15.60;;
6679;SDS011;3376;42.664;23.346;2023-12-22T02:34:28;16.63;;;14.80;;
6679;SDS011;3376;42.664;23.346;2023-12-22T02:36:57;16.47;;;14.77;;
6679;SDS011;3376;42.664;23.346;2023-12-22T02:39:25;16.40;;;14.80;;
6679;SDS011;3376;42.664;23.346;2023-12-22T02:41:53;21.43;;;13.50;;
6679;SDS011;3376;42.664;23.346;2023-12-22T02:44:21;21.27;;;13.57;;
6679;SDS011;3376;42.664;23.346;2023-12-22T02:46:48;14.93;;;13.43;;
6679;SDS011;3376;42.664;23.346;2023-12-22T02:49:15;15.57;;;12.70;;
6679;SDS011;3376;42.664;23.346;2023-12-22T02:51:43;17.30;;;15.53;;
6679;SDS011;3376;42.664;23.346;2023-12-22T02:54:11;16.50;;;14.70;;
6679;SDS011;3376;42.664;23.346;2023-12-22T02:56:38;16.50;;;14.60;;
6679;SDS011;3376;42.664;23.346;2023-12-22T02:59:06;20.37;;;14.37;;
6679;SDS011;3376;42.664;23.346;2023-12-22T03:01:34;15.17;;;13.57;;
6679;SDS011;3376;42.664;23.346;2023-12-22T03:04:01;15.60;;;14.03;;
6679;SDS011;3376;42.664;23.346;2023-12-22T03:06:28;15.00;;;13.50;;
6679;SDS011;3376;42.664;23.346;2023-12-22T03:08:55;18.57;;;16.73;;
6679;SDS011;3376;42.664;23.346;2023-12-22T03:11:22;18.83;;;13.23;;
6679;SDS011;3376;42.664;23.346;2023-12-22T03:13:49;18.63;;;16.63;;
6679;SDS011;3376;42.664;23.346;2023-12-22T03:16:17;18.77;;;16.77;;
6679;SDS011;3376;42.664;23.346;2023-12-22T03:18:44;19.07;;;16.83;;
6679;SDS011;3376;42.664;23.346;2023-12-22T03:21:15;22.67;;;17.50;;
6679;SDS011;3376;42.664;23.346;2023-12-22T03:23:43;20.77;;;16.50;;
6679;SDS011;3376;42.664;23.346;2023-12-22T03:26:10;23.57;;;16.57;;
6679;SDS011;3376;42.664;23.346;2023-12-22T03:28:37;21.67;;;17.20;;
6679;SDS011;3376;42.664;23.346;2023-12-22T03:31:04;20.53;;;16.67;;
6679;SDS011;3376;42.664;23.346;2023-12-22T03:33:34;22.70;;;16.63;;
6679;SDS011;3376;42.664;23.346;2023-12-22T03:36:01;26.43;;;17.53;;
6679;SDS011;3376;42.664;23.346;2023-12-22T03:38:28;20.50;;;16.90;;
6679;SDS011;3376;42.664;23.346;2023-12-22T03:40:55;22.53;;;16.23;;
6679;SDS011;3376;42.664;23.346;2023-12-22T03:43:21;27.03;;;17.60;;
6679;SDS011;3376;42.664;23.346;2023-12-22T03:45:48;22.97;;;16.53;;
6679;SDS011;3376;42.664;23.346;2023-12-22T03:48:15;24.33;;;17.10;;
6679;SDS011;3376;42.664;23.346;2023-12-22T03:50:44;28.27;;;17.60;;
6679;SDS011;3376;42.664;23.346;2023-12-22T03:53:11;25.67;;;17.10;;
6679;SDS011;3376;42.664;23.346;2023-12-22T03:55:38;25.97;;;17.20;;
6679;SDS011;3376;42.664;23.346;2023-12-22T03:58:05;20.33;;;18.13;;
6679;SDS011;3376;42.664;23.346;2023-12-22T04:00:32;21.90;;;17.50;;
6679;SDS011;3376;42.664;23.346;2023-12-22T04:02:59;21.13;;;15.17;;
6679;SDS011;3376;42.664;23.346;2023-12-22T04:05:27;19.13;;;17.13;;
6679;SDS011;3376;42.664;23.346;2023-12-22T04:07:55;22.63;;;18.50;;
6679;SDS011;3376;42.664;23.346;2023-12-22T04:10:22;23.90;;;18.20;;
6679;SDS011;3376;42.664;23.346;2023-12-22T04:12:49;21.10;;;16.27;;
6679;SDS011;3376;42.664;23.346;2023-12-22T04:15:16;19.90;;;14.77;;
6679;SDS011;3376;42.664;23.346;2023-12-22T04:17:43;23.33;;;17.00;;
6679;SDS011;3376;42.664;23.346;2023-12-22T04:20:10;30.20;;;21.50;;
6679;SDS011;3376;42.664;23.346;2023-12-22T04:22:37;24.70;;;18.87;;
6679;SDS011;3376;42.664;23.346;2023-12-22T04:25:06;31.10;;;21.10;;
6679;SDS011;3376;42.664;23.346;2023-12-22T04:27:34;41.13;;;25.00;;
6679;SDS011;3376;42.664;23.346;2023-12-22T04:30:01;39.73;;;27.77;;
6679;SDS011;3376;42.664;23.346;2023-12-22T04:32:28;23.97;;;18.90;;
6679;SDS011;3376;42.664;23.346;2023-12-22T04:34:55;26.00;;;17.13;;
6679;SDS011;3376;42.664;23.346;2023-12-22T04:37:22;20.47;;;15.43;;
6679;SDS011;3376;42.664;23.346;2023-12-22T04:39:49;22.37;;;15.97;;
6679;SDS011;3376;42.664;23.346;2023-12-22T04:42:18;19.93;;;16.93;;
6679;SDS011;3376;42.664;23.346;2023-12-22T04:44:45;20.13;;;16.00;;
6679;SDS011;3376;42.664;23.346;2023-12-22T04:47:12;25.93;;;16.40;;
6679;SDS011;3376;42.664;23.346;2023-12-22T04:49:39;21.17;;;15.43;;
6679;SDS011;3376;42.664;23.346;2023-12-22T04:52:06;24.37;;;17.97;;
6679;SDS011;3376;42.664;23.346;2023-12-22T04:54:33;21.23;;;16.43;;
6679;SDS011;3376;42.664;23.346;2023-12-22T04:57:00;22.03;;;17.97;;
6679;SDS011;3376;42.664;23.346;2023-12-22T04:59:29;22.00;;;15.97;;
6679;SDS011;3376;42.664;23.346;2023-12-22T05:01:56;20.73;;;15.77;;
6679;SDS011;3376;42.664;23.346;2023-12-22T05:04:23;26.07;;;15.63;;
6679;SDS011;3376;42.664;23.346;2023-12-22T05:06:50;23.40;;;16.07;;
6679;SDS011;3376;42.664;23.346;2023-12-22T05:09:17;26.47;;;17.43;;
6679;SDS011;3376;42.664;23.346;2023-12-22T05:11:44;19.73;;;16.33;;
6679;SDS011;3376;42.664;23.346;2023-12-22T05:14:11;16.63;;;14.40;;
6679;SDS011;3376;42.664;23.346;2023-12-22T05:16:38;18.27;;;15.00;;
6679;SDS011;3376;42.664;23.346;2023-12-22T05:19:05;15.70;;;14.13;;
6679;SDS011;3376;42.664;23.346;2023-12-22T05:21:32;20.67;;;14.97;;
6679;SDS011;3376;42.664;23.346;2023-12-22T05:23:59;18.73;;;14.10;;
6679;SDS011;3376;42.664;23.346;2023-12-22T05:26:26;20.13;;;15.70;;
6679;SDS011;3376;42.664;23.346;2023-12-22T05:28:55;19.73;;;16.57;;
6679;SDS011;3376;42.664;23.346;2023-12-22T05:31:22;20.00;;;16.23;;
6679;SDS011;3376;42.664;23.346;2023-12-22T05:33:50;16.33;;;14.00;;
6679;SDS011;3376;42.664;23.346;2023-12-22T05:36:17;17.87;;;14.57;;
6679;SDS011;3376;42.664;23.346;2023-12-22T05:38:44;14.83;;;13.27;;
6679;SDS011;3376;42.664;23.346;2023-12-22T05:41:11;17.57;;;14.63;;
6679;SDS011;3376;42.664;23.346;2023-12-22T05:43:38;19.43;;;14.53;;
6679;SDS011;3376;42.664;23.346;2023-12-22T05:46:05;17.83;;;13.50;;
6679;SDS011;3376;42.664;23.346;2023-12-22T05:48:33;19.43;;;14.40;;
6679;SDS011;3376;42.664;23.346;2023-12-22T05:51:02;16.53;;;13.57;;
6679;SDS011;3376;42.664;23.346;2023-12-22T05:53:32;15.20;;;13.60;;
6679;SDS011;3376;42.664;23.346;2023-12-22T05:55:59;13.57;;;12.20;;
6679;SDS011;3376;42.664;23.346;2023-12-22T05:58:26;16.57;;;13.30;;
6679;SDS011;3376;42.664;23.346;2023-12-22T06:00:53;20.40;;;14.63;;
6679;SDS011;3376;42.664;23.346;2023-12-22T06:03:20;26.10;;;15.07;;
6679;SDS011;3376;42.664;23.346;2023-12-22T06:05:47;18.73;;;14.07;;
6679;SDS011;3376;42.664;23.346;2023-12-22T06:08:15;17.87;;;13.83;;
6679;SDS011;3376;42.664;23.346;2023-12-22T06:10:42;13.80;;;12.30;;
6679;SDS011;3376;42.664;23.346;2023-12-22T06:13:09;15.77;;;12.50;;
6679;SDS011;3376;42.664;23.346;2023-12-22T06:15:36;15.93;;;14.23;;
6679;SDS011;3376;42.664;23.346;2023-12-22T06:18:04;19.13;;;14.37;;
6679;SDS011;3376;42.664;23.346;2023-12-22T06:20:31;17.17;;;14.63;;
6679;SDS011;3376;42.664;23.346;2023-12-22T06:22:58;18.87;;;14.13;;
6679;SDS011;3376;42.664;23.346;2023-12-22T06:25:26;20.33;;;13.37;;
6679;SDS011;3376;42.664;23.346;2023-12-22T06:27:53;17.53;;;13.37;;
6679;SDS011;3376;42.664;23.346;2023-12-22T06:30:20;12.90;;;11.90;;
6679;SDS011;3376;42.664;23.346;2023-12-22T06:32:47;21.57;;;13.37;;
6679;SDS011;3376;42.664;23.346;2023-12-22T06:35:14;16.00;;;14.23;;
6679;SDS011;3376;42.664;23.346;2023-12-22T06:37:42;14.70;;;12.80;;
6679;SDS011;3376;42.664;23.346;2023-12-22T06:40:09;15.97;;;13.47;;
6679;SDS011;3376;42.664;23.346;2023-12-22T06:42:38;15.63;;;14.33;;
6679;SDS011;3376;42.664;23.346;2023-12-22T06:45:05;13.87;;;12.47;;
6679;SDS011;3376;42.664;23.346;2023-12-22T06:47:33;15.17;;;13.93;;
6679;SDS011;3376;42.664;23.346;2023-12-22T06:50:00;19.10;;;13.50;;
6679;SDS011;3376;42.664;23.346;2023-12-22T06:52:27;14.10;;;12.63;;
6679;SDS011;3376;42.664;23.346;2023-12-22T06:54:55;16.50;;;14.70;;
6679;SDS011;3376;42.664;23.346;2023-12-22T06:57:22;17.33;;;13.80;;
6679;SDS011;3376;42.664;23.346;2023-12-22T06:59:50;18.40;;;12.90;;
6679;SDS011;3376;42.664;23.346;2023-12-22T07:02:17;17.57;;;15.07;;
6679;SDS011;3376;42.664;23.346;2023-12-22T07:05:01;15.97;;;14.07;;
6679;SDS011;3376;42.664;23.346;2023-12-22T07:07:32;13.93;;;12.43;;
6679;SDS011;3376;42.664;23.346;2023-12-22T07:09:59;15.43;;;12.17;;
6679;SDS011;3376;42.664;23.346;2023-12-22T07:12:26;18.03;;;12.57;;
6679;SDS011;3376;42.664;23.346;2023-12-22T07:14:54;18.67;;;13.57;;
6679;SDS011;3376;42.664;23.346;2023-12-22T07:17:21;14.73;;;13.23;;
6679;SDS011;3376;42.664;23.346;2023-12-22T07:19:48;15.83;;;13.63;;
6679;SDS011;3376;42.664;23.346;2023-12-22T07:22:17;19.07;;;14.40;;
6679;SDS011;3376;42.664;23.346;2023-12-22T07:24:44;22.47;;;14.70;;
6679;SDS011;3376;42.664;23.346;2023-12-22T07:27:11;22.90;;;14.83;;
6679;SDS011;3376;42.664;23.346;2023-12-22T07:29:39;17.03;;;13.53;;
6679;SDS011;3376;42.664;23.346;2023-12-22T07:32:08;24.70;;;14.23;;
6679;SDS011;3376;42.664;23.346;2023-12-22T07:34:34;19.70;;;15.23;;
6679;SDS011;3376;42.664;23.346;2023-12-22T07:37:01;20.23;;;13.80;;
6679;SDS011;3376;42.664;23.346;2023-12-22T07:39:29;21.03;;;14.90;;
6679;SDS011;3376;42.664;23.346;2023-12-22T07:41:56;17.83;;;14.57;;
6679;SDS011;3376;42.664;23.346;2023-12-22T07:44:23;18.70;;;15.40;;
6679;SDS011;3376;42.664;23.346;2023-12-22T07:46:55;19.37;;;14.87;;
6679;SDS011;3376;42.664;23.346;2023-12-22T07:49:25;16.00;;;14.07;;
6679;SDS011;3376;42.664;23.346;2023-12-22T07:51:52;18.40;;;14.60;;
6679;SDS011;3376;42.664;23.346;2023-12-22T07:54:19;19.57;;;14.60;;
6679;SDS011;3376;42.664;23.346;2023-12-22T07:56:46;20.47;;;13.97;;
6679;SDS011;3376;42.664;23.346;2023-12-22T07:59:13;15.07;;;13.37;;
6679;SDS011;3376;42.664;23.346;2023-12-22T08:01:40;19.50;;;15.03;;
6679;SDS011;3376;42.664;23.346;2023-12-22T08:04:08;15.30;;;13.70;;
6679;SDS011;3376;42.664;23.346;2023-12-22T08:06:36;13.63;;;11.83;;
6679;SDS011;3376;42.664;23.346;2023-12-22T08:09:03;15.13;;;13.10;;
6679;SDS011;3376;42.664;23.346;2023-12-22T08:11:31;16.20;;;13.37;;
6679;SDS011;3376;42.664;23.346;2023-12-22T08:13:58;18.13;;;13.20;;
6679;SDS011;3376;42.664;23.346;2023-12-22T08:16:25;18.13;;;14.10;;
6679;SDS011;3376;42.664;23.346;2023-12-22T08:18:52;15.77;;;13.47;;
6679;SDS011;3376;42.664;23.346;2023-12-22T08:21:19;14.90;;;13.50;;
6679;SDS011;3376;42.664;23.346;2023-12-22T08:23:47;15.27;;;13.47;;
6679;SDS011;3376;42.664;23.346;2023-12-22T08:26:14;14.37;;;12.80;;
6679;SDS011;3376;42.664;23.346;2023-12-22T08:28:43;14.23;;;12.73;;
6679;SDS011;3376;42.664;23.346;2023-12-22T08:31:10;16.70;;;12.57;;
6679;SDS011;3376;42.664;23.346;2023-12-22T08:33:37;16.37;;;14.53;;
6679;SDS011;3376;42.664;23.346;2023-12-22T08:36:06;14.40;;;12.73;;
6679;SDS011;3376;42.664;23.346;2023-12-22T08:38:33;14.93;;;13.57;;
6679;SDS011;3376;42.664;23.346;2023-12-22T08:41:03;28.50;;;21.17;;
6679;SDS011;3376;42.664;23.346;2023-12-22T08:43:30;18.40;;;14.33;;
6679;SDS011;3376;42.664;23.346;2023-12-22T08:45:57;15.50;;;13.90;;
6679;SDS011;3376;42.664;23.346;2023-12-22T08:48:24;17.93;;;13.70;;
6679;SDS011;3376;42.664;23.346;2023-12-22T08:50:51;14.27;;;12.87;;
6679;SDS011;3376;42.664;23.346;2023-12-22T08:53:18;15.67;;;13.97;;
6679;SDS011;3376;42.664;23.346;2023-12-22T08:55:44;18.57;;;15.43;;
6679;SDS011;3376;42.664;23.346;2023-12-22T08:58:13;18.63;;;14.97;;
6679;SDS011;3376;42.664;23.346;2023-12-22T09:00:40;27.93;;;16.90;;
6679;SDS011;3376;42.664;23.346;2023-12-22T09:03:07;21.50;;;16.23;;
6679;SDS011;3376;42.664;23.346;2023-12-22T09:05:34;23.33;;;18.83;;
6679;SDS011;3376;42.664;23.346;2023-12-22T09:08:00;19.53;;;17.40;;
6679;SDS011;3376;42.664;23.346;2023-12-22T09:10:27;19.63;;;16.83;;
6679;SDS011;3376;42.664;23.346;2023-12-22T09:12:54;17.53;;;15.67;;
6679;SDS011;3376;42.664;23.346;2023-12-22T09:15:23;24.13;;;18.50;;
6679;SDS011;3376;42.664;23.346;2023-12-22T09:17:51;24.77;;;17.97;;
6679;SDS011;3376;42.664;23.346;2023-12-22T09:20:21;21.10;;;17.73;;
6679;SDS011;3376;42.664;23.346;2023-12-22T09:22:48;23.77;;;19.33;;
6679;SDS011;3376;42.664;23.346;2023-12-22T09:25:15;27.70;;;19.00;;
6679;SDS011;3376;42.664;23.346;2023-12-22T09:27:42;54.20;;;36.50;;
6679;SDS011;3376;42.664;23.346;2023-12-22T09:30:09;32.67;;;22.67;;
6679;SDS011;3376;42.664;23.346;2023-12-22T09:32:38;19.90;;;16.47;;
6679;SDS011;3376;42.664;23.346;2023-12-22T09:35:05;19.53;;;17.23;;
6679;SDS011;3376;42.664;23.346;2023-12-22T09:37:33;23.17;;;18.90;;
6679;SDS011;3376;42.664;23.346;2023-12-22T09:40:00;20.37;;;16.37;;
6679;SDS011;3376;42.664;23.346;2023-12-22T09:42:26;28.83;;;17.57;;
6679;SDS011;3376;42.664;23.346;2023-12-22T09:44:55;22.90;;;16.60;;
6679;SDS011;3376;42.664;23.346;2023-12-22T09:47:23;23.83;;;17.17;;
6679;SDS011;3376;42.664;23.346;2023-12-22T09:49:55;35.47;;;22.77;;
6679;SDS011;3376;42.664;23.346;2023-12-22T09:52:24;29.47;;;21.90;;
6679;SDS011;3376;42.664;23.346;2023-12-22T09:54:52;26.53;;;19.67;;
6679;SDS011;3376;42.664;23.346;2023-12-22T09:57:20;18.23;;;16.03;;
6679;SDS011;3376;42.664;23.346;2023-12-22T09:59:50;20.23;;;16.70;;
6679;SDS011;3376;42.664;23.346;2023-12-22T10:02:19;19.53;;;15.37;;
6679;SDS011;3376;42.664;23.346;2023-12-22T10:04:46;18.40;;;15.33;;
6679;SDS011;3376;42.664;23.346;2023-12-22T10:07:15;26.27;;;18.13;;
6679;SDS011;3376;42.664;23.346;2023-12-22T10:09:43;24.90;;;17.53;;
6679;SDS011;3376;42.664;23.346;2023-12-22T10:12:13;19.13;;;16.17;;
6679;SDS011;3376;42.664;23.346;2023-12-22T10:14:41;21.10;;;16.67;;
6679;SDS011;3376;42.664;23.346;2023-12-22T10:17:09;19.70;;;16.93;;
6679;SDS011;3376;42.664;23.346;2023-12-22T10:19:36;21.40;;;16.60;;
6679;SDS011;3376;42.664;23.346;2023-12-22T10:22:04;21.57;;;16.77;;
6679;SDS011;3376;42.664;23.346;2023-12-22T10:24:39;21.60;;;17.60;;
6679;SDS011;3376;42.664;23.346;2023-12-22T10:27:08;26.23;;;17.67;;
6679;SDS011;3376;42.664;23.346;2023-12-22T10:29:36;18.87;;;16.90;;
6679;SDS011;3376;42.664;23.346;2023-12-22T10:32:04;25.67;;;17.83;;
6679;SDS011;3376;42.664;23.346;2023-12-22T10:34:31;26.83;;;18.10;;
6679;SDS011;3376;42.664;23.346;2023-12-22T10:36:59;24.63;;;16.80;;
6679;SDS011;3376;42.664;23.346;2023-12-22T10:39:26;22.77;;;16.73;;
6679;SDS011;3376;42.664;23.346;2023-12-22T10:41:56;29.37;;;18.83;;
6679;SDS011;3376;42.664;23.346;2023-12-22T10:44:24;21.23;;;17.87;;
6679;SDS011;3376;42.664;23.346;2023-12-22T10:46:51;21.30;;;18.33;;
6679;SDS011;3376;42.664;23.346;2023-12-22T10:49:18;21.90;;;17.33;;
6679;SDS011;3376;42.664;23.346;2023-12-22T10:51:45;24.97;;;17.60;;
6679;SDS011;3376;42.664;23.346;2023-12-22T10:54:13;27.00;;;18.00;;
6679;SDS011;3376;42.664;23.346;2023-12-22T10:56:40;22.03;;;18.10;;
6679;SDS011;3376;42.664;23.346;2023-12-22T10:59:08;19.93;;;16.90;;
6679;SDS011;3376;42.664;23.346;2023-12-22T11:01:36;22.40;;;16.17;;
6679;SDS011;3376;42.664;23.346;2023-12-22T11:04:05;16.80;;;15.27;;
6679;SDS011;3376;42.664;23.346;2023-12-22T11:06:34;17.20;;;15.30;;
6679;SDS011;3376;42.664;23.346;2023-12-22T11:09:03;19.40;;;16.33;;
6679;SDS011;3376;42.664;23.346;2023-12-22T11:11:34;17.23;;;14.40;;
6679;SDS011;3376;42.664;23.346;2023-12-22T11:14:02;16.00;;;14.37;;
6679;SDS011;3376;42.664;23.346;2023-12-22T11:16:30;19.20;;;15.17;;
6679;SDS011;3376;42.664;23.346;2023-12-22T11:18:58;14.93;;;13.47;;
6679;SDS011;3376;42.664;23.346;2023-12-22T11:21:27;13.37;;;12.20;;
6679;SDS011;3376;42.664;23.346;2023-12-22T11:23:55;12.50;;;11.53;;
6679;SDS011;3376;42.664;23.346;2023-12-22T11:26:23;7.70;;;7.23;;
6679;SDS011;3376;42.664;23.346;2023-12-22T11:28:51;5.93;;;5.53;;
6679;SDS011;3376;42.664;23.346;2023-12-22T11:31:19;5.20;;;5.00;;
6679;SDS011;3376;42.664;23.346;2023-12-22T11:33:48;4.40;;;4.20;;
6679;SDS011;3376;42.664;23.346;2023-12-22T11:36:17;4.40;;;4.20;;
6679;SDS011;3376;42.664;23.346;2023-12-22T11:38:45;4.83;;;4.57;;
6679;SDS011;3376;42.664;23.346;2023-12-22T11:41:14;4.93;;;4.70;;
6679;SDS011;3376;42.664;23.346;2023-12-22T11:43:46;6.03;;;5.70;;
6679;SDS011;3376;42.664;23.346;2023-12-22T11:46:16;6.07;;;5.57;;
6679;SDS011;3376;42.664;23.346;2023-12-22T11:48:48;5.13;;;4.83;;
6679;SDS011;3376;42.664;23.346;2023-12-22T11:51:15;3.53;;;3.33;;
6679;SDS011;3376;42.664;23.346;2023-12-22T11:53:43;2.33;;;2.23;;
6679;SDS011;3376;42.664;23.346;2023-12-22T11:56:11;2.20;;;2.10;;
6679;SDS011;3376;42.664;23.346;2023-12-22T11:58:39;1.77;;;1.50;;
6679;SDS011;3376;42.664;23.346;2023-12-22T12:01:08;1.87;;;1.77;;
6679;SDS011;3376;42.664;23.346;2023-12-22T12:03:36;2.20;;;2.00;;
6679;SDS011;3376;42.664;23.346;2023-12-22T12:06:15;2.83;;;1.80;;
6679;SDS011;3376;42.664;23.346;2023-12-22T12:08:43;1.53;;;1.43;;
6679;SDS011;3376;42.664;23.346;2023-12-22T12:11:10;1.33;;;1.27;;
6679;SDS011;3376;42.664;23.346;2023-12-22T12:13:41;3.67;;;0.90;;
6679;SDS011;3376;42.664;23.346;2023-12-22T12:16:11;1.00;;;1.00;;
6679;SDS011;3376;42.664;23.346;2023-12-22T12:18:38;0.87;;;0.63;;
6679;SDS011;3376;42.664;23.346;2023-12-22T12:21:06;0.97;;;0.97;;
6679;SDS011;3376;42.664;23.346;2023-12-22T12:23:35;0.70;;;0.70;;
6679;SDS011;3376;42.664;23.346;2023-12-22T12:26:02;0.80;;;0.80;;
6679;SDS011;3376;42.664;23.346;2023-12-22T12:28:32;0.87;;;0.87;;
6679;SDS011;3376;42.664;23.346;2023-12-22T12:31:01;0.97;;;0.97;;
6679;SDS011;3376;42.664;23.346;2023-12-22T12:33:30;1.07;;;0.73;;
6679;SDS011;3376;42.664;23.346;2023-12-22T12:35:57;1.13;;;1.13;;
6679;SDS011;3376;42.664;23.346;2023-12-22T12:38:30;0.67;;;0.67;;
6679;SDS011;3376;42.664;23.346;2023-12-22T12:41:09;0.73;;;0.73;;
6679;SDS011;3376;42.664;23.346;2023-12-22T12:43:40;2.00;;;0.80;;
6679;SDS011;3376;42.664;23.346;2023-12-22T12:46:09;2.20;;;1.93;;
6679;SDS011;3376;42.664;23.346;2023-12-22T12:48:36;1.10;;;1.00;;
6679;SDS011;3376;42.664;23.346;2023-12-22T12:51:03;0.90;;;0.90;;
6679;SDS011;3376;42.664;23.346;2023-12-22T12:53:31;0.90;;;0.90;;
6679;SDS011;3376;42.664;23.346;2023-12-22T12:56:00;0.60;;;0.60;;
6679;SDS011;3376;42.664;23.346;2023-12-22T12:58:28;0.70;;;0.70;;
6679;SDS011;3376;42.664;23.346;2023-12-22T13:01:03;0.87;;;0.87;;
6679;SDS011;3376;42.664;23.346;2023-12-22T13:06:18;1.00;;;1.00;;
6679;SDS011;3376;42.664;23.346;2023-12-22T13:08:47;0.80;;;0.80;;
6679;SDS011;3376;42.664;23.346;2023-12-22T13:11:15;1.03;;;1.03;;
6679;SDS011;3376;42.664;23.346;2023-12-22T13:13:46;1.10;;;1.10;;
6679;SDS011;3376;42.664;23.346;2023-12-22T13:16:13;1.23;;;1.23;;
6679;SDS011;3376;42.664;23.346;2023-12-22T13:18:43;1.20;;;1.20;;
6679;SDS011;3376;42.664;23.346;2023-12-22T13:21:10;0.90;;;0.90;;
6679;SDS011;3376;42.664;23.346;2023-12-22T13:23:38;2.07;;;1.10;;
6679;SDS011;3376;42.664;23.346;2023-12-22T13:26:05;1.60;;;1.50;;
6679;SDS011;3376;42.664;23.346;2023-12-22T13:28:33;1.53;;;1.50;;
6679;SDS011;3376;42.664;23.346;2023-12-22T13:31:00;1.50;;;1.33;;
6679;SDS011;3376;42.664;23.346;2023-12-22T13:33:27;0.90;;;0.90;;
6679;SDS011;3376;42.664;23.346;2023-12-22T13:35:59;1.10;;;1.10;;
6679;SDS011;3376;42.664;23.346;2023-12-22T13:38:28;1.03;;;1.03;;
6679;SDS011;3376;42.664;23.346;2023-12-22T13:40:55;1.40;;;1.30;;
6679;SDS011;3376;42.664;23.346;2023-12-22T13:43:22;1.10;;;1.10;;
6679;SDS011;3376;42.664;23.346;2023-12-22T13:45:55;4.17;;;1.87;;
6679;SDS011;3376;42.664;23.346;2023-12-22T13:48:23;1.73;;;1.63;;
6679;SDS011;3376;42.664;23.346;2023-12-22T13:50:56;2.20;;;2.07;;
6679;SDS011;3376;42.664;23.346;2023-12-22T13:53:24;1.40;;;1.30;;
6679;SDS011;3376;42.664;23.346;2023-12-22T13:55:54;1.37;;;1.37;;
6679;SDS011;3376;42.664;23.346;2023-12-22T13:58:21;1.67;;;1.43;;
6679;SDS011;3376;42.664;23.346;2023-12-22T14:00:49;1.20;;;0.90;;
6679;SDS011;3376;42.664;23.346;2023-12-22T14:03:17;1.57;;;1.20;;
6679;SDS011;3376;42.664;23.346;2023-12-22T14:05:46;1.13;;;1.03;;
6679;SDS011;3376;42.664;23.346;2023-12-22T14:08:14;2.47;;;1.60;;
6679;SDS011;3376;42.664;23.346;2023-12-22T14:10:44;1.00;;;1.00;;
6679;SDS011;3376;42.664;23.346;2023-12-22T14:13:12;1.40;;;1.37;;
6679;SDS011;3376;42.664;23.346;2023-12-22T14:15:39;1.13;;;1.13;;
6679;SDS011;3376;42.664;23.346;2023-12-22T14:18:08;2.00;;;1.90;;
6679;SDS011;3376;42.664;23.346;2023-12-22T14:20:36;1.13;;;1.00;;
6679;SDS011;3376;42.664;23.346;2023-12-22T14:23:03;1.20;;;1.20;;
6679;SDS011;3376;42.664;23.346;2023-12-22T14:25:30;1.30;;;1.30;;
6679;SDS011;3376;42.664;23.346;2023-12-22T14:27:58;1.50;;;1.33;;
6679;SDS011;3376;42.664;23.346;2023-12-22T14:30:25;1.33;;;1.20;;
6679;SDS011;3376;42.664;23.346;2023-12-22T14:32:52;1.33;;;1.13;;
6679;SDS011;3376;42.664;23.346;2023-12-22T14:35:19;1.03;;;1.03;;
6679;SDS011;3376;42.664;23.346;2023-12-22T14:37:47;1.27;;;1.23;;
6679;SDS011;3376;42.664;23.346;2023-12-22T14:40:14;1.73;;;1.63;;
6679;SDS011;3376;42.664;23.346;2023-12-22T14:42:41;1.53;;;1.40;;
6679;SDS011;3376;42.664;23.346;2023-12-22T14:45:08;1.63;;;1.40;;
6679;SDS011;3376;42.664;23.346;2023-12-22T14:47:35;1.37;;;1.37;;